createdAt,value
2022-08-04T00:10:36.544Z,21.64
2022-08-04T00:25:41.775Z,21.41
2022-08-04T00:41:12.692Z,21.25
2022-08-04T00:56:43.797Z,21.08
2022-08-04T01:12:01.024Z,20.86
2022-08-04T01:27:13.995Z,20.70
2022-08-04T01:42:31.469Z,20.56
2022-08-04T01:57:39.469Z,20.48
2022-08-04T02:12:55.843Z,20.36
2022-08-04T02:28:56.300Z,20.21
2022-08-04T02:44:03.900Z,20.15
2022-08-04T02:59:12.041Z,20.12
2022-08-04T03:14:27.148Z,20.16
2022-08-04T03:29:48.297Z,20.26
2022-08-04T03:45:23.242Z,20.41
2022-08-04T04:01:15.096Z,20.60
2022-08-04T04:16:42.927Z,20.77
2022-08-04T04:32:11.796Z,21.04
2022-08-04T04:48:07.685Z,21.44
2022-08-04T05:03:09.211Z,22.10
2022-08-04T05:18:19.835Z,22.62
2022-08-04T05:33:29.174Z,23.43
2022-08-04T05:48:33.950Z,24.13
2022-08-04T06:03:38.883Z,24.63
2022-08-04T06:20:02.189Z,25.32
2022-08-04T06:34:11.654Z,26.16
2022-08-04T06:49:16.181Z,26.91
2022-08-04T07:04:20.036Z,27.81
2022-08-04T07:19:23.318Z,28.61
2022-08-04T07:34:27.615Z,29.43
2022-08-04T07:49:55.001Z,30.79
2022-08-04T08:04:59.810Z,31.65
2022-08-04T08:20:03.461Z,32.55
2022-08-04T08:35:07.124Z,33.22
2022-08-04T08:50:31.403Z,33.79
2022-08-04T09:06:05.693Z,34.10
2022-08-04T09:21:57.006Z,33.69
2022-08-04T09:37:25.459Z,33.85
2022-08-04T09:52:43.555Z,33.97
2022-08-04T10:08:23.469Z,34.22
2022-08-04T10:23:56.613Z,34.16
2022-08-04T10:39:42.323Z,34.19
2022-08-04T10:54:49.127Z,34.78
2022-08-04T11:09:52.976Z,35.44
2022-08-04T11:25:09.896Z,35.57
2022-08-04T11:40:24.459Z,35.10
2022-08-04T11:55:31.124Z,35.81
2022-08-04T12:11:12.595Z,35.92
2022-08-04T12:26:23.617Z,36.06
2022-08-04T12:41:35.432Z,36.62
2022-08-04T12:56:41.182Z,36.41
2022-08-04T13:11:50.186Z,36.51
2022-08-04T13:27:03.881Z,36.44
2022-08-04T13:42:11.062Z,36.39
2022-08-04T13:57:30.535Z,36.68
2022-08-04T14:12:38.388Z,36.87
2022-08-04T14:27:51.245Z,36.79
2022-08-04T14:42:56.589Z,42.62
2022-08-04T14:58:36.578Z,41.62
2022-08-04T15:13:23.960Z,36.75
2022-08-04T15:28:29.985Z,35.85
2022-08-04T15:44:01.286Z,35.54
2022-08-04T15:59:04.393Z,34.99
2022-08-04T16:14:11.492Z,34.85
2022-08-04T16:29:24.355Z,34.43
2022-08-04T16:44:53.055Z,34.16
2022-08-04T16:59:57.008Z,33.52
2022-08-04T17:15:02.640Z,33.00
2022-08-04T17:30:26.530Z,32.58
2022-08-04T17:45:51.264Z,31.98
2022-08-04T18:01:23.240Z,31.49
2022-08-04T18:16:27.458Z,30.71
2022-08-04T18:31:31.049Z,30.10
2022-08-04T18:46:39.738Z,29.34
2022-08-04T19:02:12.493Z,28.37
2022-08-04T19:17:53.926Z,27.84
2022-08-04T19:32:48.173Z,27.44
2022-08-04T19:48:17.828Z,27.04
2022-08-04T20:03:20.418Z,26.81
2022-08-04T20:18:35.750Z,26.38
2022-08-04T20:33:40.899Z,26.03
2022-08-04T20:48:53.109Z,25.78
2022-08-04T21:04:28.055Z,25.65
2022-08-04T21:19:32.603Z,25.43
2022-08-04T21:34:41.075Z,25.16
2022-08-04T21:49:56.246Z,24.81
2022-08-04T22:05:00.754Z,24.53
2022-08-04T22:20:04.702Z,24.46
2022-08-04T22:35:44.398Z,24.31
2022-08-04T22:50:31.802Z,24.06
2022-08-04T23:05:36.106Z,23.87
2022-08-04T23:20:39.649Z,23.64
2022-08-04T23:35:42.895Z,23.52
2022-08-04T23:50:46.436Z,23.34
